sensor_id;sensor_type;location;lat;lon;timestamp;temperature;humidity
59660;DHT22;45534;52.690;6.268;2022-08-19T00:00:19;16.80;99.90
59660;DHT22;45534;52.690;6.268;2022-08-19T00:02:45;16.70;99.90
59660;DHT22;45534;52.690;6.268;2022-08-19T00:05:12;16.60;99.90
59660;DHT22;45534;52.690;6.268;2022-08-19T00:07:38;16.60;99.90
59660;DHT22;45534;52.690;6.268;2022-08-19T00:10:06;16.50;99.90
59660;DHT22;45534;52.690;6.268;2022-08-19T00:12:32;16.50;99.90
59660;DHT22;45534;52.690;6.268;2022-08-19T00:14:59;16.50;99.90
59660;DHT22;45534;52.690;6.268;2022-08-19T00:17:25;16.50;99.90
59660;DHT22;45534;52.690;6.268;2022-08-19T00:19:51;16.40;99.90
59660;DHT22;45534;52.690;6.268;2022-08-19T00:22:16;16.40;99.90
59660;DHT22;45534;52.690;6.268;2022-08-19T00:24:44;16.40;99.90
59660;DHT22;45534;52.690;6.268;2022-08-19T00:27:11;16.40;99.90
59660;DHT22;45534;52.690;6.268;2022-08-19T00:29:37;16.40;99.90
59660;DHT22;45534;52.690;6.268;2022-08-19T00:32:03;16.40;99.90
59660;DHT22;45534;52.690;6.268;2022-08-19T00:34:29;16.40;99.90
59660;DHT22;45534;52.690;6.268;2022-08-19T00:36:55;16.40;99.90
59660;DHT22;45534;52.690;6.268;2022-08-19T00:39:22;16.40;99.90
59660;DHT22;45534;52.690;6.268;2022-08-19T00:41:48;16.40;99.90
59660;DHT22;45534;52.690;6.268;2022-08-19T00:46:43;16.40;99.90
59660;DHT22;45534;52.690;6.268;2022-08-19T00:49:23;16.40;99.90
59660;DHT22;45534;52.690;6.268;2022-08-19T00:51:55;16.40;99.90
59660;DHT22;45534;52.690;6.268;2022-08-19T00:54:22;16.40;99.90
59660;DHT22;45534;52.690;6.268;2022-08-19T00:56:49;16.40;99.90
59660;DHT22;45534;52.690;6.268;2022-08-19T00:59:16;16.40;99.90
59660;DHT22;45534;52.690;6.268;2022-08-19T01:01:44;16.30;99.90
59660;DHT22;45534;52.690;6.268;2022-08-19T01:04:11;16.30;99.90
59660;DHT22;45534;52.690;6.268;2022-08-19T01:06:38;16.20;99.90
59660;DHT22;45534;52.690;6.268;2022-08-19T01:09:05;16.20;99.90
59660;DHT22;45534;52.690;6.268;2022-08-19T01:11:34;16.10;99.90
59660;DHT22;45534;52.690;6.268;2022-08-19T01:14:00;16.10;99.90
59660;DHT22;45534;52.690;6.268;2022-08-19T01:16:27;16.10;99.90
59660;DHT22;45534;52.690;6.268;2022-08-19T01:18:54;16.00;99.90
59660;DHT22;45534;52.690;6.268;2022-08-19T01:21:37;16.00;99.90
59660;DHT22;45534;52.690;6.268;2022-08-19T01:24:05;16.00;99.90
59660;DHT22;45534;52.690;6.268;2022-08-19T01:26:30;16.00;99.90
59660;DHT22;45534;52.690;6.268;2022-08-19T01:28:58;16.00;99.90
59660;DHT22;45534;52.690;6.268;2022-08-19T01:31:27;15.90;99.90
59660;DHT22;45534;52.690;6.268;2022-08-19T01:33:57;16.00;99.90
59660;DHT22;45534;52.690;6.268;2022-08-19T01:36:37;16.00;99.90
59660;DHT22;45534;52.690;6.268;2022-08-19T01:39:07;16.00;99.90
59660;DHT22;45534;52.690;6.268;2022-08-19T01:41:35;16.00;99.90
59660;DHT22;45534;52.690;6.268;2022-08-19T01:44:01;15.90;99.90
59660;DHT22;45534;52.690;6.268;2022-08-19T01:46:29;16.00;99.90
59660;DHT22;45534;52.690;6.268;2022-08-19T01:48:55;15.90;99.90
59660;DHT22;45534;52.690;6.268;2022-08-19T01:51:21;15.90;99.90
59660;DHT22;45534;52.690;6.268;2022-08-19T01:53:48;15.90;99.90
59660;DHT22;45534;52.690;6.268;2022-08-19T01:56:14;15.90;99.90
59660;DHT22;45534;52.690;6.268;2022-08-19T01:58:43;15.90;99.90
59660;DHT22;45534;52.690;6.268;2022-08-19T02:01:12;15.90;99.90
59660;DHT22;45534;52.690;6.268;2022-08-19T02:03:39;15.90;99.90
59660;DHT22;45534;52.690;6.268;2022-08-19T02:06:05;15.80;99.90
59660;DHT22;45534;52.690;6.268;2022-08-19T02:08:32;15.80;99.90
59660;DHT22;45534;52.690;6.268;2022-08-19T02:10:58;15.80;99.90
59660;DHT22;45534;52.690;6.268;2022-08-19T02:13:24;15.70;99.90
59660;DHT22;45534;52.690;6.268;2022-08-19T02:15:50;15.60;99.90
59660;DHT22;45534;52.690;6.268;2022-08-19T02:18:16;15.60;99.90
59660;DHT22;45534;52.690;6.268;2022-08-19T02:20:43;15.50;99.90
59660;DHT22;45534;52.690;6.268;2022-08-19T02:23:10;15.50;99.90
59660;DHT22;45534;52.690;6.268;2022-08-19T02:25:36;15.50;99.90
59660;DHT22;45534;52.690;6.268;2022-08-19T02:28:02;15.50;99.90
59660;DHT22;45534;52.690;6.268;2022-08-19T02:30:28;15.50;99.90
59660;DHT22;45534;52.690;6.268;2022-08-19T02:32:54;15.50;99.90
59660;DHT22;45534;52.690;6.268;2022-08-19T02:35:20;15.50;99.90
59660;DHT22;45534;52.690;6.268;2022-08-19T02:37:46;15.50;99.90
59660;DHT22;45534;52.690;6.268;2022-08-19T02:40:32;15.40;99.90
59660;DHT22;45534;52.690;6.268;2022-08-19T02:43:02;15.40;99.90
59660;DHT22;45534;52.690;6.268;2022-08-19T02:45:33;15.30;99.90
59660;DHT22;45534;52.690;6.268;2022-08-19T02:47:58;15.40;99.90
59660;DHT22;45534;52.690;6.268;2022-08-19T02:50:24;15.30;99.90
59660;DHT22;45534;52.690;6.268;2022-08-19T02:52:50;15.40;99.90
59660;DHT22;45534;52.690;6.268;2022-08-19T02:55:15;15.40;99.90
59660;DHT22;45534;52.690;6.268;2022-08-19T02:57:41;15.40;99.90
59660;DHT22;45534;52.690;6.268;2022-08-19T03:00:08;15.40;99.90
59660;DHT22;45534;52.690;6.268;2022-08-19T03:02:35;15.30;99.90
59660;DHT22;45534;52.690;6.268;2022-08-19T03:05:03;15.30;99.90
59660;DHT22;45534;52.690;6.268;2022-08-19T03:07:29;15.20;99.90
59660;DHT22;45534;52.690;6.268;2022-08-19T03:09:56;15.20;99.90
59660;DHT22;45534;52.690;6.268;2022-08-19T03:12:21;15.10;99.90
59660;DHT22;45534;52.690;6.268;2022-08-19T03:14:47;15.10;99.90
59660;DHT22;45534;52.690;6.268;2022-08-19T03:17:13;15.10;99.90
59660;DHT22;45534;52.690;6.268;2022-08-19T03:19:39;15.00;99.90
59660;DHT22;45534;52.690;6.268;2022-08-19T03:22:04;15.00;99.90
59660;DHT22;45534;52.690;6.268;2022-08-19T03:24:31;15.00;99.90
59660;DHT22;45534;52.690;6.268;2022-08-19T03:26:57;15.00;99.90
59660;DHT22;45534;52.690;6.268;2022-08-19T03:29:25;15.00;99.90
59660;DHT22;45534;52.690;6.268;2022-08-19T03:31:52;15.00;99.90
59660;DHT22;45534;52.690;6.268;2022-08-19T03:34:25;15.00;99.90
59660;DHT22;45534;52.690;6.268;2022-08-19T03:36:55;15.00;99.90
59660;DHT22;45534;52.690;6.268;2022-08-19T03:39:23;15.00;99.90
59660;DHT22;45534;52.690;6.268;2022-08-19T03:41:50;15.00;99.90
59660;DHT22;45534;52.690;6.268;2022-08-19T03:44:18;15.00;99.90
59660;DHT22;45534;52.690;6.268;2022-08-19T03:46:56;15.00;99.90
59660;DHT22;45534;52.690;6.268;2022-08-19T03:49:25;15.00;99.90
59660;DHT22;45534;52.690;6.268;2022-08-19T03:51:53;15.00;99.90
59660;DHT22;45534;52.690;6.268;2022-08-19T03:54:21;15.00;99.90
59660;DHT22;45534;52.690;6.268;2022-08-19T03:56:50;15.00;99.90
59660;DHT22;45534;52.690;6.268;2022-08-19T03:59:19;14.90;99.90
59660;DHT22;45534;52.690;6.268;2022-08-19T04:01:45;15.00;99.90
59660;DHT22;45534;52.690;6.268;2022-08-19T04:04:11;14.90;99.90
59660;DHT22;45534;52.690;6.268;2022-08-19T04:06:38;15.00;99.90
59660;DHT22;45534;52.690;6.268;2022-08-19T04:09:06;15.00;99.90
59660;DHT22;45534;52.690;6.268;2022-08-19T04:11:39;15.00;99.90
59660;DHT22;45534;52.690;6.268;2022-08-19T04:14:14;14.90;99.90
59660;DHT22;45534;52.690;6.268;2022-08-19T04:16:40;15.00;99.90
59660;DHT22;45534;52.690;6.268;2022-08-19T04:19:06;15.00;99.90
59660;DHT22;45534;52.690;6.268;2022-08-19T04:21:33;15.00;99.90
59660;DHT22;45534;52.690;6.268;2022-08-19T04:23:59;15.00;99.90
59660;DHT22;45534;52.690;6.268;2022-08-19T04:26:31;14.90;99.90
59660;DHT22;45534;52.690;6.268;2022-08-19T04:28:59;14.90;99.90
59660;DHT22;45534;52.690;6.268;2022-08-19T04:31:29;15.00;99.90
59660;DHT22;45534;52.690;6.268;2022-08-19T04:33:59;14.90;99.90
59660;DHT22;45534;52.690;6.268;2022-08-19T04:36:34;15.00;99.90
59660;DHT22;45534;52.690;6.268;2022-08-19T04:39:05;15.00;99.90
59660;DHT22;45534;52.690;6.268;2022-08-19T04:41:32;15.00;99.90
59660;DHT22;45534;52.690;6.268;2022-08-19T04:44:17;15.00;99.90
59660;DHT22;45534;52.690;6.268;2022-08-19T04:46:47;15.00;99.90
59660;DHT22;45534;52.690;6.268;2022-08-19T04:49:14;15.00;99.90
59660;DHT22;45534;52.690;6.268;2022-08-19T04:51:43;15.00;99.90
59660;DHT22;45534;52.690;6.268;2022-08-19T04:54:09;15.00;99.90
59660;DHT22;45534;52.690;6.268;2022-08-19T04:56:34;15.00;99.90
59660;DHT22;45534;52.690;6.268;2022-08-19T04:59:01;15.00;99.90
59660;DHT22;45534;52.690;6.268;2022-08-19T05:01:31;15.00;99.90
59660;DHT22;45534;52.690;6.268;2022-08-19T05:03:59;15.10;99.90
59660;DHT22;45534;52.690;6.268;2022-08-19T05:06:26;15.10;99.90
59660;DHT22;45534;52.690;6.268;2022-08-19T05:08:52;15.10;99.90
59660;DHT22;45534;52.690;6.268;2022-08-19T05:11:22;15.10;99.90
59660;DHT22;45534;52.690;6.268;2022-08-19T05:13:48;15.10;99.90
59660;DHT22;45534;52.690;6.268;2022-08-19T05:16:17;15.20;99.90
59660;DHT22;45534;52.690;6.268;2022-08-19T05:18:43;15.20;99.90
59660;DHT22;45534;52.690;6.268;2022-08-19T05:21:29;15.20;99.90
59660;DHT22;45534;52.690;6.268;2022-08-19T05:24:13;15.20;99.90
59660;DHT22;45534;52.690;6.268;2022-08-19T05:26:42;15.20;99.90
59660;DHT22;45534;52.690;6.268;2022-08-19T05:29:09;15.20;99.90
59660;DHT22;45534;52.690;6.268;2022-08-19T05:31:36;15.30;99.90
59660;DHT22;45534;52.690;6.268;2022-08-19T05:34:04;15.30;99.90
59660;DHT22;45534;52.690;6.268;2022-08-19T05:36:35;15.40;99.90
59660;DHT22;45534;52.690;6.268;2022-08-19T05:39:02;15.40;99.90
59660;DHT22;45534;52.690;6.268;2022-08-19T05:41:28;15.50;99.90
59660;DHT22;45534;52.690;6.268;2022-08-19T05:44:03;15.50;99.90
59660;DHT22;45534;52.690;6.268;2022-08-19T05:46:31;15.60;99.90
59660;DHT22;45534;52.690;6.268;2022-08-19T05:48:57;15.60;99.90
59660;DHT22;45534;52.690;6.268;2022-08-19T05:51:24;15.70;99.90
59660;DHT22;45534;52.690;6.268;2022-08-19T05:53:50;15.80;99.90
59660;DHT22;45534;52.690;6.268;2022-08-19T05:56:17;15.90;99.90
59660;DHT22;45534;52.690;6.268;2022-08-19T05:58:44;15.90;99.90
59660;DHT22;45534;52.690;6.268;2022-08-19T06:01:15;16.00;99.90
59660;DHT22;45534;52.690;6.268;2022-08-19T06:03:41;16.00;99.90
59660;DHT22;45534;52.690;6.268;2022-08-19T06:06:09;16.10;99.90
59660;DHT22;45534;52.690;6.268;2022-08-19T06:08:36;16.10;99.90
59660;DHT22;45534;52.690;6.268;2022-08-19T06:11:40;16.10;99.90
59660;DHT22;45534;52.690;6.268;2022-08-19T06:14:11;16.20;99.90
59660;DHT22;45534;52.690;6.268;2022-08-19T06:16:39;16.20;99.90
59660;DHT22;45534;52.690;6.268;2022-08-19T06:19:09;16.30;99.90
59660;DHT22;45534;52.690;6.268;2022-08-19T06:21:36;16.30;99.90
59660;DHT22;45534;52.690;6.268;2022-08-19T06:24:04;16.40;99.90
59660;DHT22;45534;52.690;6.268;2022-08-19T06:26:30;16.50;99.90
59660;DHT22;45534;52.690;6.268;2022-08-19T06:28:56;16.50;99.90
59660;DHT22;45534;52.690;6.268;2022-08-19T06:31:25;16.60;99.90
59660;DHT22;45534;52.690;6.268;2022-08-19T06:33:52;16.70;99.90
59660;DHT22;45534;52.690;6.268;2022-08-19T06:36:24;16.80;99.90
59660;DHT22;45534;52.690;6.268;2022-08-19T06:38:55;16.90;99.90
59660;DHT22;45534;52.690;6.268;2022-08-19T06:41:24;17.00;99.90
59660;DHT22;45534;52.690;6.268;2022-08-19T06:43:49;17.10;99.90
59660;DHT22;45534;52.690;6.268;2022-08-19T06:46:16;17.20;99.90
59660;DHT22;45534;52.690;6.268;2022-08-19T06:48:43;17.30;99.90
59660;DHT22;45534;52.690;6.268;2022-08-19T06:51:08;17.50;99.90
59660;DHT22;45534;52.690;6.268;2022-08-19T06:53:34;17.60;99.90
59660;DHT22;45534;52.690;6.268;2022-08-19T06:56:00;17.70;99.90
59660;DHT22;45534;52.690;6.268;2022-08-19T06:58:30;17.70;99.90
59660;DHT22;45534;52.690;6.268;2022-08-19T07:00:59;17.90;99.90
59660;DHT22;45534;52.690;6.268;2022-08-19T07:03:29;18.00;99.90
59660;DHT22;45534;52.690;6.268;2022-08-19T07:05:56;18.00;99.90
59660;DHT22;45534;52.690;6.268;2022-08-19T07:08:22;18.10;99.90
59660;DHT22;45534;52.690;6.268;2022-08-19T07:10:48;18.20;99.90
59660;DHT22;45534;52.690;6.268;2022-08-19T07:13:14;18.40;99.90
59660;DHT22;45534;52.690;6.268;2022-08-19T07:15:40;18.50;99.90
59660;DHT22;45534;52.690;6.268;2022-08-19T07:18:06;18.60;99.90
59660;DHT22;45534;52.690;6.268;2022-08-19T07:20:31;18.70;99.90
59660;DHT22;45534;52.690;6.268;2022-08-19T07:22:58;18.80;99.90
59660;DHT22;45534;52.690;6.268;2022-08-19T07:25:24;18.90;99.90
59660;DHT22;45534;52.690;6.268;2022-08-19T07:27:50;19.00;99.90
59660;DHT22;45534;52.690;6.268;2022-08-19T07:30:16;19.10;99.90
59660;DHT22;45534;52.690;6.268;2022-08-19T07:32:42;19.20;99.90
59660;DHT22;45534;52.690;6.268;2022-08-19T07:35:09;19.40;99.90
59660;DHT22;45534;52.690;6.268;2022-08-19T07:37:35;19.50;99.90
59660;DHT22;45534;52.690;6.268;2022-08-19T07:40:05;19.60;99.90
59660;DHT22;45534;52.690;6.268;2022-08-19T07:42:31;19.70;99.90
59660;DHT22;45534;52.690;6.268;2022-08-19T07:44:58;19.80;99.90
59660;DHT22;45534;52.690;6.268;2022-08-19T07:47:23;20.00;99.90
59660;DHT22;45534;52.690;6.268;2022-08-19T07:49:49;20.10;99.90
59660;DHT22;45534;52.690;6.268;2022-08-19T07:52:15;20.20;99.90
59660;DHT22;45534;52.690;6.268;2022-08-19T07:54:42;20.30;99.90
59660;DHT22;45534;52.690;6.268;2022-08-19T07:57:07;20.30;99.90
59660;DHT22;45534;52.690;6.268;2022-08-19T07:59:34;20.40;99.90
59660;DHT22;45534;52.690;6.268;2022-08-19T08:01:59;20.50;99.90
59660;DHT22;45534;52.690;6.268;2022-08-19T08:04:26;20.60;99.90
59660;DHT22;45534;52.690;6.268;2022-08-19T08:07:11;20.70;99.90
59660;DHT22;45534;52.690;6.268;2022-08-19T08:09:55;20.70;99.90
59660;DHT22;45534;52.690;6.268;2022-08-19T08:12:24;20.80;99.90
59660;DHT22;45534;52.690;6.268;2022-08-19T08:14:57;20.90;99.90
59660;DHT22;45534;52.690;6.268;2022-08-19T08:17:26;20.90;99.90
59660;DHT22;45534;52.690;6.268;2022-08-19T08:19:53;21.00;99.90
59660;DHT22;45534;52.690;6.268;2022-08-19T08:22:20;21.00;99.90
59660;DHT22;45534;52.690;6.268;2022-08-19T08:25:18;21.10;99.90
59660;DHT22;45534;52.690;6.268;2022-08-19T08:27:45;21.10;99.90
59660;DHT22;45534;52.690;6.268;2022-08-19T08:30:20;21.20;99.90
59660;DHT22;45534;52.690;6.268;2022-08-19T08:32:47;21.30;99.90
59660;DHT22;45534;52.690;6.268;2022-08-19T08:35:15;21.40;99.90
59660;DHT22;45534;52.690;6.268;2022-08-19T08:37:43;21.60;99.90
59660;DHT22;45534;52.690;6.268;2022-08-19T08:40:22;21.60;99.90
59660;DHT22;45534;52.690;6.268;2022-08-19T08:43:07;21.70;99.90
59660;DHT22;45534;52.690;6.268;2022-08-19T08:45:36;21.90;99.90
59660;DHT22;45534;52.690;6.268;2022-08-19T08:48:20;22.00;99.90
59660;DHT22;45534;52.690;6.268;2022-08-19T08:50:49;22.10;99.90
59660;DHT22;45534;52.690;6.268;2022-08-19T08:53:18;22.20;99.90
59660;DHT22;45534;52.690;6.268;2022-08-19T08:55:44;22.30;99.90
59660;DHT22;45534;52.690;6.268;2022-08-19T08:58:20;22.40;99.90
59660;DHT22;45534;52.690;6.268;2022-08-19T09:00:49;22.50;99.90
59660;DHT22;45534;52.690;6.268;2022-08-19T09:03:28;22.50;99.90
59660;DHT22;45534;52.690;6.268;2022-08-19T09:11:22;22.80;99.90
59660;DHT22;45534;52.690;6.268;2022-08-19T09:16:23;23.00;99.90
59660;DHT22;45534;52.690;6.268;2022-08-19T09:19:05;23.10;99.90
59660;DHT22;45534;52.690;6.268;2022-08-19T09:21:31;23.20;99.90
59660;DHT22;45534;52.690;6.268;2022-08-19T09:23:57;23.30;99.90
59660;DHT22;45534;52.690;6.268;2022-08-19T09:26:24;23.40;99.90
59660;DHT22;45534;52.690;6.268;2022-08-19T09:28:51;23.60;99.90
59660;DHT22;45534;52.690;6.268;2022-08-19T09:31:26;23.70;99.90
59660;DHT22;45534;52.690;6.268;2022-08-19T09:33:53;23.80;99.90
59660;DHT22;45534;52.690;6.268;2022-08-19T09:36:23;23.80;99.90
59660;DHT22;45534;52.690;6.268;2022-08-19T09:38:51;23.80;99.90
59660;DHT22;45534;52.690;6.268;2022-08-19T09:41:19;23.80;99.90
59660;DHT22;45534;52.690;6.268;2022-08-19T09:43:48;24.00;99.90
59660;DHT22;45534;52.690;6.268;2022-08-19T09:46:14;24.10;99.90
59660;DHT22;45534;52.690;6.268;2022-08-19T09:48:42;24.10;99.90
59660;DHT22;45534;52.690;6.268;2022-08-19T09:51:13;24.10;99.90
59660;DHT22;45534;52.690;6.268;2022-08-19T09:53:45;24.20;99.90
59660;DHT22;45534;52.690;6.268;2022-08-19T09:56:12;24.30;99.90
59660;DHT22;45534;52.690;6.268;2022-08-19T09:58:39;24.40;99.90
59660;DHT22;45534;52.690;6.268;2022-08-19T10:01:06;24.60;99.90
59660;DHT22;45534;52.690;6.268;2022-08-19T10:03:34;24.90;99.90
59660;DHT22;45534;52.690;6.268;2022-08-19T10:06:02;25.00;99.90
59660;DHT22;45534;52.690;6.268;2022-08-19T10:08:32;25.00;99.90
59660;DHT22;45534;52.690;6.268;2022-08-19T10:10:59;25.10;99.90
59660;DHT22;45534;52.690;6.268;2022-08-19T10:13:28;25.00;99.90
59660;DHT22;45534;52.690;6.268;2022-08-19T10:15:57;25.00;99.90
59660;DHT22;45534;52.690;6.268;2022-08-19T10:18:27;25.10;99.90
59660;DHT22;45534;52.690;6.268;2022-08-19T10:23:34;25.10;99.90
59660;DHT22;45534;52.690;6.268;2022-08-19T10:26:01;25.20;99.90
59660;DHT22;45534;52.690;6.268;2022-08-19T10:28:26;25.40;99.90
59660;DHT22;45534;52.690;6.268;2022-08-19T10:30:52;25.60;99.90
59660;DHT22;45534;52.690;6.268;2022-08-19T10:33:18;25.80;99.90
59660;DHT22;45534;52.690;6.268;2022-08-19T10:35:44;25.80;99.90
59660;DHT22;45534;52.690;6.268;2022-08-19T10:38:12;25.90;99.90
59660;DHT22;45534;52.690;6.268;2022-08-19T10:40:37;26.00;99.90
59660;DHT22;45534;52.690;6.268;2022-08-19T10:43:03;26.00;99.90
59660;DHT22;45534;52.690;6.268;2022-08-19T10:45:29;26.00;99.90
59660;DHT22;45534;52.690;6.268;2022-08-19T10:47:54;26.00;99.90
59660;DHT22;45534;52.690;6.268;2022-08-19T10:50:20;26.00;99.90
59660;DHT22;45534;52.690;6.268;2022-08-19T10:53:06;26.00;99.90
59660;DHT22;45534;52.690;6.268;2022-08-19T10:55:34;26.00;99.90
59660;DHT22;45534;52.690;6.268;2022-08-19T10:58:20;25.90;99.90
59660;DHT22;45534;52.690;6.268;2022-08-19T11:00:56;26.00;99.90
59660;DHT22;45534;52.690;6.268;2022-08-19T11:03:22;26.10;99.90
59660;DHT22;45534;52.690;6.268;2022-08-19T11:06:00;26.20;99.90
59660;DHT22;45534;52.690;6.268;2022-08-19T11:08:26;26.30;99.90
59660;DHT22;45534;52.690;6.268;2022-08-19T11:10:53;26.40;99.90
59660;DHT22;45534;52.690;6.268;2022-08-19T11:13:27;26.50;99.90
59660;DHT22;45534;52.690;6.268;2022-08-19T11:16:02;26.50;99.90
59660;DHT22;45534;52.690;6.268;2022-08-19T11:18:28;26.50;99.90
59660;DHT22;45534;52.690;6.268;2022-08-19T11:20:54;26.60;99.90
59660;DHT22;45534;52.690;6.268;2022-08-19T11:23:20;26.80;99.90
59660;DHT22;45534;52.690;6.268;2022-08-19T11:25:46;26.70;99.90
59660;DHT22;45534;52.690;6.268;2022-08-19T11:28:12;26.70;99.90
59660;DHT22;45534;52.690;6.268;2022-08-19T11:30:39;26.90;99.90
59660;DHT22;45534;52.690;6.268;2022-08-19T11:33:04;27.00;99.90
59660;DHT22;45534;52.690;6.268;2022-08-19T11:35:30;27.30;99.90
59660;DHT22;45534;52.690;6.268;2022-08-19T11:37:56;27.40;99.80
59660;DHT22;45534;52.690;6.268;2022-08-19T11:40:26;27.30;99.80
59660;DHT22;45534;52.690;6.268;2022-08-19T11:42:52;27.20;99.90
59660;DHT22;45534;52.690;6.268;2022-08-19T11:45:22;27.30;99.90
59660;DHT22;45534;52.690;6.268;2022-08-19T11:47:48;27.30;99.90
59660;DHT22;45534;52.690;6.268;2022-08-19T11:50:15;27.30;99.50
59660;DHT22;45534;52.690;6.268;2022-08-19T11:52:41;27.50;99.40
59660;DHT22;45534;52.690;6.268;2022-08-19T11:55:07;27.70;99.20
59660;DHT22;45534;52.690;6.268;2022-08-19T11:57:33;27.80;99.20
59660;DHT22;45534;52.690;6.268;2022-08-19T11:59:58;28.00;98.50
59660;DHT22;45534;52.690;6.268;2022-08-19T12:02:24;28.00;97.70
59660;DHT22;45534;52.690;6.268;2022-08-19T12:04:50;28.10;96.50
59660;DHT22;45534;52.690;6.268;2022-08-19T12:07:16;28.00;97.60
59660;DHT22;45534;52.690;6.268;2022-08-19T12:09:42;27.90;97.60
59660;DHT22;45534;52.690;6.268;2022-08-19T12:12:08;27.80;97.60
59660;DHT22;45534;52.690;6.268;2022-08-19T12:14:34;27.50;98.40
59660;DHT22;45534;52.690;6.268;2022-08-19T12:17:00;27.50;98.40
59660;DHT22;45534;52.690;6.268;2022-08-19T12:19:27;27.50;97.80
59660;DHT22;45534;52.690;6.268;2022-08-19T12:21:58;27.50;97.60
59660;DHT22;45534;52.690;6.268;2022-08-19T12:24:26;27.70;97.80
59660;DHT22;45534;52.690;6.268;2022-08-19T12:26:52;27.60;97.10
59660;DHT22;45534;52.690;6.268;2022-08-19T12:29:19;27.70;96.50
59660;DHT22;45534;52.690;6.268;2022-08-19T12:31:44;27.90;96.80
59660;DHT22;45534;52.690;6.268;2022-08-19T12:34:10;27.80;97.20
59660;DHT22;45534;52.690;6.268;2022-08-19T12:36:36;27.80;96.80
59660;DHT22;45534;52.690;6.268;2022-08-19T12:39:03;27.90;97.40
59660;DHT22;45534;52.690;6.268;2022-08-19T12:41:29;28.00;97.50
59660;DHT22;45534;52.690;6.268;2022-08-19T12:43:55;28.20;96.00
59660;DHT22;45534;52.690;6.268;2022-08-19T12:46:20;28.20;96.50
59660;DHT22;45534;52.690;6.268;2022-08-19T12:48:46;28.30;95.10
59660;DHT22;45534;52.690;6.268;2022-08-19T12:51:15;28.20;96.30
59660;DHT22;45534;52.690;6.268;2022-08-19T12:53:42;28.30;94.40
59660;DHT22;45534;52.690;6.268;2022-08-19T12:56:10;28.30;94.50
59660;DHT22;45534;52.690;6.268;2022-08-19T12:58:36;28.20;95.20
59660;DHT22;45534;52.690;6.268;2022-08-19T13:01:10;28.30;94.00
59660;DHT22;45534;52.690;6.268;2022-08-19T13:03:36;28.60;93.10
59660;DHT22;45534;52.690;6.268;2022-08-19T13:06:02;28.70;93.20
59660;DHT22;45534;52.690;6.268;2022-08-19T13:08:28;28.80;90.90
59660;DHT22;45534;52.690;6.268;2022-08-19T13:10:54;29.10;92.30
59660;DHT22;45534;52.690;6.268;2022-08-19T13:13:20;29.20;89.40
59660;DHT22;45534;52.690;6.268;2022-08-19T13:15:47;29.20;89.90
59660;DHT22;45534;52.690;6.268;2022-08-19T13:18:13;29.40;89.10
59660;DHT22;45534;52.690;6.268;2022-08-19T13:20:40;29.50;87.40
59660;DHT22;45534;52.690;6.268;2022-08-19T13:23:09;29.50;87.20
59660;DHT22;45534;52.690;6.268;2022-08-19T13:25:35;29.50;90.30
59660;DHT22;45534;52.690;6.268;2022-08-19T13:28:02;29.60;86.10
59660;DHT22;45534;52.690;6.268;2022-08-19T13:30:27;29.80;82.70
59660;DHT22;45534;52.690;6.268;2022-08-19T13:33:12;30.00;82.30
59660;DHT22;45534;52.690;6.268;2022-08-19T13:35:56;30.10;83.60
59660;DHT22;45534;52.690;6.268;2022-08-19T13:38:23;30.40;81.80
59660;DHT22;45534;52.690;6.268;2022-08-19T13:40:51;30.60;81.30
59660;DHT22;45534;52.690;6.268;2022-08-19T13:43:18;30.80;80.30
59660;DHT22;45534;52.690;6.268;2022-08-19T13:45:45;30.90;76.20
59660;DHT22;45534;52.690;6.268;2022-08-19T13:48:11;30.80;69.10
59660;DHT22;45534;52.690;6.268;2022-08-19T13:50:42;30.80;70.60
59660;DHT22;45534;52.690;6.268;2022-08-19T13:53:09;30.50;69.70
59660;DHT22;45534;52.690;6.268;2022-08-19T13:55:38;30.00;78.80
59660;DHT22;45534;52.690;6.268;2022-08-19T13:58:04;29.50;88.30
59660;DHT22;45534;52.690;6.268;2022-08-19T14:00:34;29.10;92.60
59660;DHT22;45534;52.690;6.268;2022-08-19T14:03:00;29.10;93.50
59660;DHT22;45534;52.690;6.268;2022-08-19T14:05:28;29.00;93.10
59660;DHT22;45534;52.690;6.268;2022-08-19T14:07:54;28.60;94.60
59660;DHT22;45534;52.690;6.268;2022-08-19T14:10:22;28.40;95.90
59660;DHT22;45534;52.690;6.268;2022-08-19T14:12:48;28.20;96.30
59660;DHT22;45534;52.690;6.268;2022-08-19T14:15:15;28.00;97.50
59660;DHT22;45534;52.690;6.268;2022-08-19T14:17:42;28.00;97.40
59660;DHT22;45534;52.690;6.268;2022-08-19T14:20:10;28.00;97.30
59660;DHT22;45534;52.690;6.268;2022-08-19T14:22:40;27.90;97.70
59660;DHT22;45534;52.690;6.268;2022-08-19T14:25:12;27.60;97.80
59660;DHT22;45534;52.690;6.268;2022-08-19T14:27:39;27.50;97.70
59660;DHT22;45534;52.690;6.268;2022-08-19T14:30:07;27.30;98.30
59660;DHT22;45534;52.690;6.268;2022-08-19T14:32:34;27.00;99.40
59660;DHT22;45534;52.690;6.268;2022-08-19T14:35:00;26.90;99.70
59660;DHT22;45534;52.690;6.268;2022-08-19T14:37:25;26.70;99.90
59660;DHT22;45534;52.690;6.268;2022-08-19T14:39:51;26.50;99.90
59660;DHT22;45534;52.690;6.268;2022-08-19T14:42:17;26.30;99.90
59660;DHT22;45534;52.690;6.268;2022-08-19T14:44:43;26.20;99.90
59660;DHT22;45534;52.690;6.268;2022-08-19T14:47:09;26.00;99.90
59660;DHT22;45534;52.690;6.268;2022-08-19T14:49:35;26.00;99.90
59660;DHT22;45534;52.690;6.268;2022-08-19T14:52:02;26.00;99.90
59660;DHT22;45534;52.690;6.268;2022-08-19T14:54:29;25.90;99.90
59660;DHT22;45534;52.690;6.268;2022-08-19T14:56:54;25.90;99.90
59660;DHT22;45534;52.690;6.268;2022-08-19T14:59:20;25.90;99.90
59660;DHT22;45534;52.690;6.268;2022-08-19T15:01:46;25.80;99.90
59660;DHT22;45534;52.690;6.268;2022-08-19T15:04:12;25.80;99.90
59660;DHT22;45534;52.690;6.268;2022-08-19T15:06:37;25.70;99.90
59660;DHT22;45534;52.690;6.268;2022-08-19T15:09:04;25.60;99.90
59660;DHT22;45534;52.690;6.268;2022-08-19T15:11:30;25.50;99.90
59660;DHT22;45534;52.690;6.268;2022-08-19T15:13:58;25.50;99.90
59660;DHT22;45534;52.690;6.268;2022-08-19T15:16:25;25.50;99.90
59660;DHT22;45534;52.690;6.268;2022-08-19T15:18:54;25.40;99.90
59660;DHT22;45534;52.690;6.268;2022-08-19T15:21:20;25.30;99.90
59660;DHT22;45534;52.690;6.268;2022-08-19T15:23:47;25.20;99.90
59660;DHT22;45534;52.690;6.268;2022-08-19T15:26:14;25.20;99.90
59660;DHT22;45534;52.690;6.268;2022-08-19T15:28:41;25.20;99.90
59660;DHT22;45534;52.690;6.268;2022-08-19T15:31:07;25.20;99.90
59660;DHT22;45534;52.690;6.268;2022-08-19T15:33:35;25.20;99.90
59660;DHT22;45534;52.690;6.268;2022-08-19T15:36:05;25.20;99.90
59660;DHT22;45534;52.690;6.268;2022-08-19T15:38:32;25.20;99.90
59660;DHT22;45534;52.690;6.268;2022-08-19T15:41:00;25.20;99.90
59660;DHT22;45534;52.690;6.268;2022-08-19T15:43:47;25.10;99.90
59660;DHT22;45534;52.690;6.268;2022-08-19T15:46:17;25.20;99.90
59660;DHT22;45534;52.690;6.268;2022-08-19T15:48:44;25.20;99.90